sensor_id;sensor_type;location;lat;lon;timestamp;P1;durP1;ratioP1;P2;durP2;ratioP2
64225;SDS011;50545;56.064;26.178;2023-02-27T00:01:22;3.00;;;1.83;;
64225;SDS011;50545;56.064;26.178;2023-02-27T00:03:49;4.55;;;2.40;;
64225;SDS011;50545;56.064;26.178;2023-02-27T00:06:16;4.03;;;2.08;;
64225;SDS011;50545;56.064;26.178;2023-02-27T00:08:43;4.43;;;2.40;;
64225;SDS011;50545;56.064;26.178;2023-02-27T00:11:11;3.70;;;2.17;;
64225;SDS011;50545;56.064;26.178;2023-02-27T00:13:38;3.20;;;1.98;;
64225;SDS011;50545;56.064;26.178;2023-02-27T00:16:05;4.28;;;2.50;;
64225;SDS011;50545;56.064;26.178;2023-02-27T00:18:33;4.30;;;2.33;;
64225;SDS011;50545;56.064;26.178;2023-02-27T00:21:01;3.13;;;1.90;;
64225;SDS011;50545;56.064;26.178;2023-02-27T00:23:28;3.38;;;2.10;;
64225;SDS011;50545;56.064;26.178;2023-02-27T00:25:55;4.53;;;2.35;;
64225;SDS011;50545;56.064;26.178;2023-02-27T00:28:22;3.70;;;2.00;;
64225;SDS011;50545;56.064;26.178;2023-02-27T00:30:50;3.90;;;2.13;;
64225;SDS011;50545;56.064;26.178;2023-02-27T00:33:17;3.05;;;2.03;;
64225;SDS011;50545;56.064;26.178;2023-02-27T00:35:44;3.92;;;2.40;;
64225;SDS011;50545;56.064;26.178;2023-02-27T00:38:11;4.18;;;2.40;;
64225;SDS011;50545;56.064;26.178;2023-02-27T00:40:38;4.50;;;2.17;;
64225;SDS011;50545;56.064;26.178;2023-02-27T00:43:05;3.70;;;2.20;;
64225;SDS011;50545;56.064;26.178;2023-02-27T00:45:33;3.75;;;2.28;;
64225;SDS011;50545;56.064;26.178;2023-02-27T00:48:00;4.60;;;2.40;;
64225;SDS011;50545;56.064;26.178;2023-02-27T00:50:27;4.50;;;2.10;;
64225;SDS011;50545;56.064;26.178;2023-02-27T00:52:54;3.60;;;2.30;;
64225;SDS011;50545;56.064;26.178;2023-02-27T00:55:21;4.30;;;2.10;;
64225;SDS011;50545;56.064;26.178;2023-02-27T00:57:51;3.47;;;2.30;;
64225;SDS011;50545;56.064;26.178;2023-02-27T01:00:18;4.03;;;2.03;;
64225;SDS011;50545;56.064;26.178;2023-02-27T01:02:46;3.45;;;2.03;;
64225;SDS011;50545;56.064;26.178;2023-02-27T01:05:16;4.47;;;2.60;;
64225;SDS011;50545;56.064;26.178;2023-02-27T01:07:44;4.18;;;2.10;;
64225;SDS011;50545;56.064;26.178;2023-02-27T01:10:11;4.63;;;2.60;;
64225;SDS011;50545;56.064;26.178;2023-02-27T01:12:39;4.00;;;2.33;;
64225;SDS011;50545;56.064;26.178;2023-02-27T01:15:07;3.95;;;2.00;;
64225;SDS011;50545;56.064;26.178;2023-02-27T01:17:35;4.13;;;2.28;;
64225;SDS011;50545;56.064;26.178;2023-02-27T01:20:03;4.53;;;2.33;;
64225;SDS011;50545;56.064;26.178;2023-02-27T01:22:31;4.55;;;2.60;;
64225;SDS011;50545;56.064;26.178;2023-02-27T01:24:58;3.40;;;1.95;;
64225;SDS011;50545;56.064;26.178;2023-02-27T01:27:26;2.47;;;1.67;;
64225;SDS011;50545;56.064;26.178;2023-02-27T01:29:53;3.60;;;2.10;;
64225;SDS011;50545;56.064;26.178;2023-02-27T01:32:21;3.35;;;2.10;;
64225;SDS011;50545;56.064;26.178;2023-02-27T01:34:48;3.90;;;2.10;;
64225;SDS011;50545;56.064;26.178;2023-02-27T01:37:16;2.40;;;1.90;;
64225;SDS011;50545;56.064;26.178;2023-02-27T01:39:43;2.80;;;1.70;;
64225;SDS011;50545;56.064;26.178;2023-02-27T01:42:24;3.30;;;2.00;;
64225;SDS011;50545;56.064;26.178;2023-02-27T01:47:57;5.10;;;2.40;;
64225;SDS011;50545;56.064;26.178;2023-02-27T01:50:30;3.33;;;2.17;;
64225;SDS011;50545;56.064;26.178;2023-02-27T01:52:59;3.95;;;2.20;;
64225;SDS011;50545;56.064;26.178;2023-02-27T01:55:28;3.83;;;2.10;;
64225;SDS011;50545;56.064;26.178;2023-02-27T01:57:58;4.88;;;2.28;;
64225;SDS011;50545;56.064;26.178;2023-02-27T02:00:26;3.33;;;2.05;;
64225;SDS011;50545;56.064;26.178;2023-02-27T02:05:45;3.53;;;2.00;;
64225;SDS011;50545;56.064;26.178;2023-02-27T02:08:14;4.45;;;2.20;;
64225;SDS011;50545;56.064;26.178;2023-02-27T02:10:44;4.15;;;2.22;;
64225;SDS011;50545;56.064;26.178;2023-02-27T02:13:14;5.00;;;2.50;;
64225;SDS011;50545;56.064;26.178;2023-02-27T02:15:44;3.33;;;2.10;;
64225;SDS011;50545;56.064;26.178;2023-02-27T02:18:36;2.47;;;1.60;;
64225;SDS011;50545;56.064;26.178;2023-02-27T02:27:03;4.45;;;2.30;;
64225;SDS011;50545;56.064;26.178;2023-02-27T02:35:29;3.60;;;2.20;;
64225;SDS011;50545;56.064;26.178;2023-02-27T02:46:31;3.92;;;2.35;;
64225;SDS011;50545;56.064;26.178;2023-02-27T02:49:11;6.05;;;2.50;;
64225;SDS011;50545;56.064;26.178;2023-02-27T02:51:51;5.35;;;2.67;;
64225;SDS011;50545;56.064;26.178;2023-02-27T03:00:25;7.90;;;3.20;;
64225;SDS011;50545;56.064;26.178;2023-02-27T03:03:19;7.82;;;4.00;;
64225;SDS011;50545;56.064;26.178;2023-02-27T03:06:02;7.90;;;3.38;;
64225;SDS011;50545;56.064;26.178;2023-02-27T03:08:53;8.95;;;3.47;;
64225;SDS011;50545;56.064;26.178;2023-02-27T03:11:23;6.43;;;3.50;;
64225;SDS011;50545;56.064;26.178;2023-02-27T03:14:05;7.25;;;3.58;;
64225;SDS011;50545;56.064;26.178;2023-02-27T03:16:43;5.65;;;2.90;;
64225;SDS011;50545;56.064;26.178;2023-02-27T03:19:17;4.82;;;2.58;;
64225;SDS011;50545;56.064;26.178;2023-02-27T03:21:54;4.38;;;2.50;;
64225;SDS011;50545;56.064;26.178;2023-02-27T03:27:12;4.35;;;2.75;;
64225;SDS011;50545;56.064;26.178;2023-02-27T03:29:58;4.32;;;2.28;;
64225;SDS011;50545;56.064;26.178;2023-02-27T03:32:43;2.60;;;1.73;;
64225;SDS011;50545;56.064;26.178;2023-02-27T03:38:24;3.78;;;2.30;;
64225;SDS011;50545;56.064;26.178;2023-02-27T03:41:27;3.40;;;1.90;;
64225;SDS011;50545;56.064;26.178;2023-02-27T03:46:26;3.88;;;2.25;;
64225;SDS011;50545;56.064;26.178;2023-02-27T03:48:54;3.33;;;2.08;;
64225;SDS011;50545;56.064;26.178;2023-02-27T03:51:22;3.80;;;2.08;;
64225;SDS011;50545;56.064;26.178;2023-02-27T03:53:54;4.10;;;2.03;;
64225;SDS011;50545;56.064;26.178;2023-02-27T03:56:30;3.95;;;2.00;;
64225;SDS011;50545;56.064;26.178;2023-02-27T03:59:03;3.55;;;2.10;;
64225;SDS011;50545;56.064;26.178;2023-02-27T04:01:31;3.72;;;1.90;;
64225;SDS011;50545;56.064;26.178;2023-02-27T04:04:01;3.28;;;1.85;;
64225;SDS011;50545;56.064;26.178;2023-02-27T04:06:33;5.07;;;2.17;;
64225;SDS011;50545;56.064;26.178;2023-02-27T04:09:28;4.93;;;2.10;;
64225;SDS011;50545;56.064;26.178;2023-02-27T04:23:20;3.28;;;1.80;;
64225;SDS011;50545;56.064;26.178;2023-02-27T04:26:13;4.15;;;2.30;;
64225;SDS011;50545;56.064;26.178;2023-02-27T04:29:17;4.25;;;2.15;;
64225;SDS011;50545;56.064;26.178;2023-02-27T04:32:05;4.80;;;2.10;;
64225;SDS011;50545;56.064;26.178;2023-02-27T04:35:05;3.53;;;2.25;;
64225;SDS011;50545;56.064;26.178;2023-02-27T04:37:34;3.33;;;2.05;;
64225;SDS011;50545;56.064;26.178;2023-02-27T04:40:14;3.65;;;2.20;;
64225;SDS011;50545;56.064;26.178;2023-02-27T04:42:50;3.07;;;2.00;;
64225;SDS011;50545;56.064;26.178;2023-02-27T04:45:23;3.35;;;2.00;;
64225;SDS011;50545;56.064;26.178;2023-02-27T04:47:57;3.80;;;2.08;;
64225;SDS011;50545;56.064;26.178;2023-02-27T04:50:35;3.10;;;2.10;;
64225;SDS011;50545;56.064;26.178;2023-02-27T04:53:08;2.72;;;1.90;;
64225;SDS011;50545;56.064;26.178;2023-02-27T04:56:02;2.97;;;1.92;;
64225;SDS011;50545;56.064;26.178;2023-02-27T05:01:35;2.90;;;1.80;;
64225;SDS011;50545;56.064;26.178;2023-02-27T05:04:10;2.08;;;1.52;;
64225;SDS011;50545;56.064;26.178;2023-02-27T05:06:42;3.22;;;1.80;;
64225;SDS011;50545;56.064;26.178;2023-02-27T05:09:15;2.43;;;1.60;;
64225;SDS011;50545;56.064;26.178;2023-02-27T05:12:09;3.22;;;2.15;;
64225;SDS011;50545;56.064;26.178;2023-02-27T05:14:49;3.22;;;2.10;;
64225;SDS011;50545;56.064;26.178;2023-02-27T05:17:24;3.80;;;2.10;;
64225;SDS011;50545;56.064;26.178;2023-02-27T05:20:02;2.95;;;1.85;;
64225;SDS011;50545;56.064;26.178;2023-02-27T05:27:53;3.88;;;2.00;;
64225;SDS011;50545;56.064;26.178;2023-02-27T05:31:03;4.22;;;2.33;;
64225;SDS011;50545;56.064;26.178;2023-02-27T05:34:00;3.08;;;1.98;;
64225;SDS011;50545;56.064;26.178;2023-02-27T05:36:34;4.85;;;2.00;;
64225;SDS011;50545;56.064;26.178;2023-02-27T05:39:05;2.38;;;1.75;;
64225;SDS011;50545;56.064;26.178;2023-02-27T05:41:42;2.90;;;1.92;;
64225;SDS011;50545;56.064;26.178;2023-02-27T05:44:20;3.67;;;2.20;;
64225;SDS011;50545;56.064;26.178;2023-02-27T05:46:52;2.83;;;1.80;;
64225;SDS011;50545;56.064;26.178;2023-02-27T05:49:37;2.88;;;1.90;;
64225;SDS011;50545;56.064;26.178;2023-02-27T05:52:09;2.20;;;1.77;;
64225;SDS011;50545;56.064;26.178;2023-02-27T05:54:44;2.97;;;1.95;;
64225;SDS011;50545;56.064;26.178;2023-02-27T05:57:18;4.60;;;2.20;;
64225;SDS011;50545;56.064;26.178;2023-02-27T06:02:46;3.60;;;2.17;;
64225;SDS011;50545;56.064;26.178;2023-02-27T06:05:14;3.92;;;1.95;;
64225;SDS011;50545;56.064;26.178;2023-02-27T06:07:43;3.50;;;2.03;;
64225;SDS011;50545;56.064;26.178;2023-02-27T06:10:11;3.67;;;2.20;;
64225;SDS011;50545;56.064;26.178;2023-02-27T06:12:41;3.08;;;2.00;;
64225;SDS011;50545;56.064;26.178;2023-02-27T06:15:09;3.13;;;2.00;;
64225;SDS011;50545;56.064;26.178;2023-02-27T06:17:37;2.95;;;2.03;;
64225;SDS011;50545;56.064;26.178;2023-02-27T06:20:05;3.25;;;2.08;;
64225;SDS011;50545;56.064;26.178;2023-02-27T06:22:33;3.80;;;2.20;;
64225;SDS011;50545;56.064;26.178;2023-02-27T06:25:00;2.95;;;2.08;;
64225;SDS011;50545;56.064;26.178;2023-02-27T06:27:27;3.38;;;2.13;;
64225;SDS011;50545;56.064;26.178;2023-02-27T06:29:55;4.70;;;2.28;;
64225;SDS011;50545;56.064;26.178;2023-02-27T06:32:23;2.55;;;1.90;;
64225;SDS011;50545;56.064;26.178;2023-02-27T06:34:53;3.53;;;2.15;;
64225;SDS011;50545;56.064;26.178;2023-02-27T06:37:20;2.80;;;2.00;;
64225;SDS011;50545;56.064;26.178;2023-02-27T06:39:47;4.15;;;2.30;;
64225;SDS011;50545;56.064;26.178;2023-02-27T06:42:15;4.15;;;1.83;;
64225;SDS011;50545;56.064;26.178;2023-02-27T06:44:42;2.90;;;1.98;;
64225;SDS011;50545;56.064;26.178;2023-02-27T06:47:09;5.32;;;2.92;;
64225;SDS011;50545;56.064;26.178;2023-02-27T06:49:36;3.50;;;1.88;;
64225;SDS011;50545;56.064;26.178;2023-02-27T06:52:04;3.45;;;2.15;;
64225;SDS011;50545;56.064;26.178;2023-02-27T06:54:31;4.25;;;2.28;;
64225;SDS011;50545;56.064;26.178;2023-02-27T06:56:59;2.80;;;1.85;;
64225;SDS011;50545;56.064;26.178;2023-02-27T06:59:26;3.22;;;2.08;;
64225;SDS011;50545;56.064;26.178;2023-02-27T07:01:53;4.50;;;2.10;;
64225;SDS011;50545;56.064;26.178;2023-02-27T07:04:21;2.20;;;1.52;;
64225;SDS011;50545;56.064;26.178;2023-02-27T07:06:48;6.57;;;4.60;;
64225;SDS011;50545;56.064;26.178;2023-02-27T07:09:35;7.30;;;5.07;;
64225;SDS011;50545;56.064;26.178;2023-02-27T07:12:03;2.55;;;1.92;;
64225;SDS011;50545;56.064;26.178;2023-02-27T07:14:30;6.00;;;2.70;;
64225;SDS011;50545;56.064;26.178;2023-02-27T07:16:58;3.00;;;1.80;;
64225;SDS011;50545;56.064;26.178;2023-02-27T07:19:29;3.28;;;1.92;;
64225;SDS011;50545;56.064;26.178;2023-02-27T07:21:57;4.13;;;2.28;;
64225;SDS011;50545;56.064;26.178;2023-02-27T07:24:24;4.40;;;2.30;;
64225;SDS011;50545;56.064;26.178;2023-02-27T07:26:52;3.90;;;2.10;;
64225;SDS011;50545;56.064;26.178;2023-02-27T07:29:19;4.30;;;2.45;;
64225;SDS011;50545;56.064;26.178;2023-02-27T07:31:46;3.33;;;2.13;;
64225;SDS011;50545;56.064;26.178;2023-02-27T07:34:13;3.50;;;2.08;;
64225;SDS011;50545;56.064;26.178;2023-02-27T07:36:41;3.25;;;1.63;;
64225;SDS011;50545;56.064;26.178;2023-02-27T07:39:09;3.10;;;2.10;;
64225;SDS011;50545;56.064;26.178;2023-02-27T07:41:38;3.53;;;2.00;;
64225;SDS011;50545;56.064;26.178;2023-02-27T07:44:05;3.58;;;2.05;;
64225;SDS011;50545;56.064;26.178;2023-02-27T07:46:34;4.35;;;2.10;;
64225;SDS011;50545;56.064;26.178;2023-02-27T07:49:01;4.25;;;2.20;;
64225;SDS011;50545;56.064;26.178;2023-02-27T07:51:29;4.57;;;2.10;;
64225;SDS011;50545;56.064;26.178;2023-02-27T07:53:56;7.15;;;4.80;;
64225;SDS011;50545;56.064;26.178;2023-02-27T07:56:24;6.10;;;2.22;;
64225;SDS011;50545;56.064;26.178;2023-02-27T07:58:53;3.33;;;2.10;;
64225;SDS011;50545;56.064;26.178;2023-02-27T08:01:20;3.55;;;2.00;;
64225;SDS011;50545;56.064;26.178;2023-02-27T08:03:48;3.50;;;1.98;;
64225;SDS011;50545;56.064;26.178;2023-02-27T08:06:15;3.95;;;2.30;;
64225;SDS011;50545;56.064;26.178;2023-02-27T08:08:42;2.92;;;1.80;;
64225;SDS011;50545;56.064;26.178;2023-02-27T08:11:09;3.38;;;1.88;;
64225;SDS011;50545;56.064;26.178;2023-02-27T08:13:36;4.03;;;1.90;;
64225;SDS011;50545;56.064;26.178;2023-02-27T08:16:23;2.58;;;1.80;;
64225;SDS011;50545;56.064;26.178;2023-02-27T08:18:51;2.55;;;1.70;;
64225;SDS011;50545;56.064;26.178;2023-02-27T08:21:19;4.75;;;2.20;;
64225;SDS011;50545;56.064;26.178;2023-02-27T08:23:46;5.22;;;2.63;;
64225;SDS011;50545;56.064;26.178;2023-02-27T08:26:13;3.03;;;2.03;;
64225;SDS011;50545;56.064;26.178;2023-02-27T08:28:41;4.00;;;2.20;;
64225;SDS011;50545;56.064;26.178;2023-02-27T08:31:08;5.50;;;2.42;;
64225;SDS011;50545;56.064;26.178;2023-02-27T08:33:35;4.85;;;2.60;;
64225;SDS011;50545;56.064;26.178;2023-02-27T08:36:02;3.72;;;2.50;;
64225;SDS011;50545;56.064;26.178;2023-02-27T08:38:29;4.75;;;2.40;;
64225;SDS011;50545;56.064;26.178;2023-02-27T08:40:57;4.07;;;2.40;;
64225;SDS011;50545;56.064;26.178;2023-02-27T08:43:24;3.65;;;2.10;;
64225;SDS011;50545;56.064;26.178;2023-02-27T08:45:51;3.15;;;1.90;;
64225;SDS011;50545;56.064;26.178;2023-02-27T08:48:18;3.40;;;2.00;;
64225;SDS011;50545;56.064;26.178;2023-02-27T08:50:46;4.60;;;2.20;;
64225;SDS011;50545;56.064;26.178;2023-02-27T08:53:13;3.00;;;2.10;;
64225;SDS011;50545;56.064;26.178;2023-02-27T08:55:40;3.65;;;2.10;;
64225;SDS011;50545;56.064;26.178;2023-02-27T08:58:08;3.65;;;2.20;;
64225;SDS011;50545;56.064;26.178;2023-02-27T09:00:35;4.50;;;2.58;;
64225;SDS011;50545;56.064;26.178;2023-02-27T09:03:03;3.72;;;2.10;;
64225;SDS011;50545;56.064;26.178;2023-02-27T09:05:30;5.22;;;2.40;;
64225;SDS011;50545;56.064;26.178;2023-02-27T09:08:00;4.32;;;2.50;;
64225;SDS011;50545;56.064;26.178;2023-02-27T09:10:28;2.63;;;1.90;;
64225;SDS011;50545;56.064;26.178;2023-02-27T09:12:55;4.00;;;2.28;;
64225;SDS011;50545;56.064;26.178;2023-02-27T09:15:22;3.90;;;2.50;;
64225;SDS011;50545;56.064;26.178;2023-02-27T09:17:50;3.95;;;2.33;;
64225;SDS011;50545;56.064;26.178;2023-02-27T09:20:20;4.15;;;2.33;;
64225;SDS011;50545;56.064;26.178;2023-02-27T09:22:47;3.78;;;2.33;;
64225;SDS011;50545;56.064;26.178;2023-02-27T09:25:14;4.03;;;2.30;;
64225;SDS011;50545;56.064;26.178;2023-02-27T09:27:41;4.70;;;2.40;;
64225;SDS011;50545;56.064;26.178;2023-02-27T09:30:08;5.75;;;2.90;;
64225;SDS011;50545;56.064;26.178;2023-02-27T09:32:36;4.07;;;2.58;;
64225;SDS011;50545;56.064;26.178;2023-02-27T09:35:03;6.38;;;2.95;;
64225;SDS011;50545;56.064;26.178;2023-02-27T09:37:31;4.85;;;2.45;;
64225;SDS011;50545;56.064;26.178;2023-02-27T09:39:58;5.68;;;2.70;;
64225;SDS011;50545;56.064;26.178;2023-02-27T09:42:27;5.35;;;2.90;;
64225;SDS011;50545;56.064;26.178;2023-02-27T09:45:04;5.57;;;2.63;;
64225;SDS011;50545;56.064;26.178;2023-02-27T09:47:34;4.45;;;2.95;;
64225;SDS011;50545;56.064;26.178;2023-02-27T09:50:06;4.68;;;2.60;;
64225;SDS011;50545;56.064;26.178;2023-02-27T09:52:43;4.32;;;2.45;;
64225;SDS011;50545;56.064;26.178;2023-02-27T09:55:12;4.32;;;2.67;;
64225;SDS011;50545;56.064;26.178;2023-02-27T10:00:47;4.50;;;2.40;;
64225;SDS011;50545;56.064;26.178;2023-02-27T10:09:08;4.20;;;2.50;;
64225;SDS011;50545;56.064;26.178;2023-02-27T10:15:11;3.38;;;1.90;;
64225;SDS011;50545;56.064;26.178;2023-02-27T10:17:48;2.63;;;1.75;;
64225;SDS011;50545;56.064;26.178;2023-02-27T10:20:23;4.07;;;2.30;;
64225;SDS011;50545;56.064;26.178;2023-02-27T10:23:15;2.63;;;1.70;;
64225;SDS011;50545;56.064;26.178;2023-02-27T10:25:46;5.22;;;2.60;;
64225;SDS011;50545;56.064;26.178;2023-02-27T10:28:17;4.28;;;2.45;;
64225;SDS011;50545;56.064;26.178;2023-02-27T10:30:46;4.65;;;2.45;;
64225;SDS011;50545;56.064;26.178;2023-02-27T10:36:02;4.95;;;2.55;;
64225;SDS011;50545;56.064;26.178;2023-02-27T10:38:44;5.07;;;2.60;;
64225;SDS011;50545;56.064;26.178;2023-02-27T10:41:16;4.18;;;2.45;;
64225;SDS011;50545;56.064;26.178;2023-02-27T10:43:45;4.05;;;2.50;;
64225;SDS011;50545;56.064;26.178;2023-02-27T10:46:20;3.58;;;2.35;;
64225;SDS011;50545;56.064;26.178;2023-02-27T10:48:58;4.68;;;2.30;;
64225;SDS011;50545;56.064;26.178;2023-02-27T10:51:32;4.60;;;2.40;;
64225;SDS011;50545;56.064;26.178;2023-02-27T10:54:14;4.40;;;2.58;;
64225;SDS011;50545;56.064;26.178;2023-02-27T10:56:48;2.90;;;1.90;;
64225;SDS011;50545;56.064;26.178;2023-02-27T10:59:24;3.65;;;2.00;;
64225;SDS011;50545;56.064;26.178;2023-02-27T11:04:26;5.40;;;2.60;;
64225;SDS011;50545;56.064;26.178;2023-02-27T11:06:54;4.90;;;2.38;;
64225;SDS011;50545;56.064;26.178;2023-02-27T11:09:23;4.43;;;2.40;;
64225;SDS011;50545;56.064;26.178;2023-02-27T11:16:58;4.32;;;2.70;;
64225;SDS011;50545;56.064;26.178;2023-02-27T11:19:38;4.90;;;2.58;;
64225;SDS011;50545;56.064;26.178;2023-02-27T11:22:19;4.15;;;2.20;;
64225;SDS011;50545;56.064;26.178;2023-02-27T11:24:50;2.85;;;1.95;;
64225;SDS011;50545;56.064;26.178;2023-02-27T11:27:26;2.53;;;1.90;;
64225;SDS011;50545;56.064;26.178;2023-02-27T11:29:59;3.70;;;2.17;;
64225;SDS011;50545;56.064;26.178;2023-02-27T11:32:44;3.45;;;1.92;;
64225;SDS011;50545;56.064;26.178;2023-02-27T11:35:29;3.45;;;2.10;;
64225;SDS011;50545;56.064;26.178;2023-02-27T11:38:03;3.85;;;2.40;;
64225;SDS011;50545;56.064;26.178;2023-02-27T11:43:03;4.70;;;2.73;;
64225;SDS011;50545;56.064;26.178;2023-02-27T11:45:40;4.80;;;2.08;;
64225;SDS011;50545;56.064;26.178;2023-02-27T11:48:45;3.58;;;2.00;;
64225;SDS011;50545;56.064;26.178;2023-02-27T11:57:01;3.97;;;2.15;;
64225;SDS011;50545;56.064;26.178;2023-02-27T12:08:06;5.65;;;2.58;;
64225;SDS011;50545;56.064;26.178;2023-02-27T12:10:57;4.75;;;2.40;;
64225;SDS011;50545;56.064;26.178;2023-02-27T12:13:45;4.15;;;2.40;;
64225;SDS011;50545;56.064;26.178;2023-02-27T12:19:23;7.30;;;2.58;;
64225;SDS011;50545;56.064;26.178;2023-02-27T12:22:20;5.00;;;2.55;;
64225;SDS011;50545;56.064;26.178;2023-02-27T12:24:59;3.50;;;2.20;;
64225;SDS011;50545;56.064;26.178;2023-02-27T12:30:21;4.18;;;2.53;;
64225;SDS011;50545;56.064;26.178;2023-02-27T12:35:48;5.97;;;2.55;;
64225;SDS011;50545;56.064;26.178;2023-02-27T12:38:23;4.10;;;2.70;;
64225;SDS011;50545;56.064;26.178;2023-02-27T12:40:55;5.00;;;2.50;;
64225;SDS011;50545;56.064;26.178;2023-02-27T12:55:29;4.40;;;2.50;;
64225;SDS011;50545;56.064;26.178;2023-02-27T13:01:00;5.60;;;2.60;;
64225;SDS011;50545;56.064;26.178;2023-02-27T13:03:33;5.88;;;2.88;;
64225;SDS011;50545;56.064;26.178;2023-02-27T13:06:12;6.97;;;2.67;;
64225;SDS011;50545;56.064;26.178;2023-02-27T13:11:23;4.53;;;2.60;;
64225;SDS011;50545;56.064;26.178;2023-02-27T13:14:04;5.57;;;2.80;;
64225;SDS011;50545;56.064;26.178;2023-02-27T13:16:42;4.80;;;2.67;;
64225;SDS011;50545;56.064;26.178;2023-02-27T13:19:31;4.80;;;2.70;;
64225;SDS011;50545;56.064;26.178;2023-02-27T13:25:00;5.80;;;2.78;;
64225;SDS011;50545;56.064;26.178;2023-02-27T13:27:32;6.55;;;2.95;;
64225;SDS011;50545;56.064;26.178;2023-02-27T13:30:07;5.10;;;2.80;;
64225;SDS011;50545;56.064;26.178;2023-02-27T13:32:50;5.93;;;3.00;;
64225;SDS011;50545;56.064;26.178;2023-02-27T13:38:52;4.93;;;2.90;;
64225;SDS011;50545;56.064;26.178;2023-02-27T13:43:51;5.97;;;3.10;;
64225;SDS011;50545;56.064;26.178;2023-02-27T13:46:21;4.43;;;2.70;;
64225;SDS011;50545;56.064;26.178;2023-02-27T13:54:20;5.95;;;2.63;;
64225;SDS011;50545;56.064;26.178;2023-02-27T14:04:45;5.15;;;2.58;;
64225;SDS011;50545;56.064;26.178;2023-02-27T14:07:18;6.07;;;3.38;;
64225;SDS011;50545;56.064;26.178;2023-02-27T14:09:50;5.65;;;2.85;;
64225;SDS011;50545;56.064;26.178;2023-02-27T14:12:26;5.97;;;3.20;;
64225;SDS011;50545;56.064;26.178;2023-02-27T14:15:47;6.30;;;3.15;;
64225;SDS011;50545;56.064;26.178;2023-02-27T14:17:59;5.25;;;2.90;;
64225;SDS011;50545;56.064;26.178;2023-02-27T14:25:44;6.15;;;3.33;;
64225;SDS011;50545;56.064;26.178;2023-02-27T14:31:01;6.82;;;3.03;;
64225;SDS011;50545;56.064;26.178;2023-02-27T14:33:44;4.43;;;2.38;;
64225;SDS011;50545;56.064;26.178;2023-02-27T14:36:18;5.72;;;2.70;;
64225;SDS011;50545;56.064;26.178;2023-02-27T14:38:47;4.68;;;2.80;;
64225;SDS011;50545;56.064;26.178;2023-02-27T14:44:01;5.03;;;2.90;;
64225;SDS011;50545;56.064;26.178;2023-02-27T14:46:36;5.47;;;2.97;;
64225;SDS011;50545;56.064;26.178;2023-02-27T14:49:21;5.47;;;2.72;;
64225;SDS011;50545;56.064;26.178;2023-02-27T14:52:09;5.32;;;2.88;;
64225;SDS011;50545;56.064;26.178;2023-02-27T14:54:37;5.60;;;2.58;;
64225;SDS011;50545;56.064;26.178;2023-02-27T14:57:05;7.20;;;3.40;;
64225;SDS011;50545;56.064;26.178;2023-02-27T14:59:42;6.78;;;3.33;;
64225;SDS011;50545;56.064;26.178;2023-02-27T15:02:33;6.20;;;3.40;;
64225;SDS011;50545;56.064;26.178;2023-02-27T15:07:30;6.43;;;3.30;;
64225;SDS011;50545;56.064;26.178;2023-02-27T15:10:00;7.07;;;3.13;;
64225;SDS011;50545;56.064;26.178;2023-02-27T15:12:30;5.70;;;2.90;;
64225;SDS011;50545;56.064;26.178;2023-02-27T15:15:02;5.40;;;3.13;;
64225;SDS011;50545;56.064;26.178;2023-02-27T15:17:41;5.50;;;2.90;;
64225;SDS011;50545;56.064;26.178;2023-02-27T15:23:01;6.55;;;3.13;;
64225;SDS011;50545;56.064;26.178;2023-02-27T15:25:46;5.85;;;3.05;;
64225;SDS011;50545;56.064;26.178;2023-02-27T15:28:19;7.38;;;3.40;;
64225;SDS011;50545;56.064;26.178;2023-02-27T15:30:52;6.78;;;3.55;;
64225;SDS011;50545;56.064;26.178;2023-02-27T15:33:28;7.30;;;3.10;;
64225;SDS011;50545;56.064;26.178;2023-02-27T15:35:57;6.13;;;2.85;;
64225;SDS011;50545;56.064;26.178;2023-02-27T15:38:30;6.05;;;3.30;;
64225;SDS011;50545;56.064;26.178;2023-02-27T15:41:00;6.70;;;3.38;;
64225;SDS011;50545;56.064;26.178;2023-02-27T15:43:28;7.82;;;3.70;;
64225;SDS011;50545;56.064;26.178;2023-02-27T15:45:56;6.43;;;3.50;;
64225;SDS011;50545;56.064;26.178;2023-02-27T15:48:24;7.60;;;3.50;;
64225;SDS011;50545;56.064;26.178;2023-02-27T15:50:58;7.57;;;3.65;;
64225;SDS011;50545;56.064;26.178;2023-02-27T15:53:29;7.70;;;4.07;;
64225;SDS011;50545;56.064;26.178;2023-02-27T15:56:00;7.40;;;3.83;;
64225;SDS011;50545;56.064;26.178;2023-02-27T15:58:35;9.48;;;4.13;;
64225;SDS011;50545;56.064;26.178;2023-02-27T16:01:06;6.75;;;3.92;;
64225;SDS011;50545;56.064;26.178;2023-02-27T16:03:41;10.80;;;3.60;;
64225;SDS011;50545;56.064;26.178;2023-02-27T16:06:10;9.25;;;4.68;;
64225;SDS011;50545;56.064;26.178;2023-02-27T16:08:44;9.95;;;4.50;;
64225;SDS011;50545;56.064;26.178;2023-02-27T16:11:23;8.75;;;4.28;;
64225;SDS011;50545;56.064;26.178;2023-02-27T16:13:51;7.72;;;4.03;;
64225;SDS011;50545;56.064;26.178;2023-02-27T16:18:54;8.30;;;4.35;;
64225;SDS011;50545;56.064;26.178;2023-02-27T16:21:23;9.20;;;4.70;;
64225;SDS011;50545;56.064;26.178;2023-02-27T16:23:52;10.35;;;4.50;;
64225;SDS011;50545;56.064;26.178;2023-02-27T16:31:35;9.80;;;4.75;;
64225;SDS011;50545;56.064;26.178;2023-02-27T16:37:25;6.35;;;3.30;;
64225;SDS011;50545;56.064;26.178;2023-02-27T16:42:39;7.53;;;3.47;;
64225;SDS011;50545;56.064;26.178;2023-02-27T16:45:07;5.70;;;3.20;;
64225;SDS011;50545;56.064;26.178;2023-02-27T16:47:47;6.38;;;3.40;;
64225;SDS011;50545;56.064;26.178;2023-02-27T16:52:54;6.25;;;3.05;;
64225;SDS011;50545;56.064;26.178;2023-02-27T16:55:23;6.40;;;3.35;;
64225;SDS011;50545;56.064;26.178;2023-02-27T16:57:50;6.10;;;3.25;;
64225;SDS011;50545;56.064;26.178;2023-02-27T17:00:18;7.53;;;3.58;;
64225;SDS011;50545;56.064;26.178;2023-02-27T17:02:48;6.63;;;3.27;;
64225;SDS011;50545;56.064;26.178;2023-02-27T17:05:16;6.68;;;3.47;;
64225;SDS011;50545;56.064;26.178;2023-02-27T17:07:44;6.68;;;3.78;;
64225;SDS011;50545;56.064;26.178;2023-02-27T17:10:15;5.68;;;3.03;;
64225;SDS011;50545;56.064;26.178;2023-02-27T17:12:47;6.60;;;3.13;;
64225;SDS011;50545;56.064;26.178;2023-02-27T17:15:14;6.72;;;3.20;;
64225;SDS011;50545;56.064;26.178;2023-02-27T17:17:42;5.40;;;2.90;;
64225;SDS011;50545;56.064;26.178;2023-02-27T17:20:10;6.82;;;3.38;;
64225;SDS011;50545;56.064;26.178;2023-02-27T17:22:40;6.28;;;3.08;;
64225;SDS011;50545;56.064;26.178;2023-02-27T17:25:09;5.85;;;2.95;;
64225;SDS011;50545;56.064;26.178;2023-02-27T17:27:37;6.93;;;3.47;;
64225;SDS011;50545;56.064;26.178;2023-02-27T17:30:04;4.97;;;2.90;;
64225;SDS011;50545;56.064;26.178;2023-02-27T17:32:32;5.90;;;3.20;;
64225;SDS011;50545;56.064;26.178;2023-02-27T17:35:00;6.25;;;3.20;;
64225;SDS011;50545;56.064;26.178;2023-02-27T17:37:27;6.40;;;3.20;;
64225;SDS011;50545;56.064;26.178;2023-02-27T17:39:54;5.97;;;3.13;;
64225;SDS011;50545;56.064;26.178;2023-02-27T17:42:22;5.93;;;3.00;;
64225;SDS011;50545;56.064;26.178;2023-02-27T17:44:51;6.72;;;3.40;;
64225;SDS011;50545;56.064;26.178;2023-02-27T17:47:18;5.93;;;3.33;;
64225;SDS011;50545;56.064;26.178;2023-02-27T17:49:45;5.68;;;3.03;;
64225;SDS011;50545;56.064;26.178;2023-02-27T17:52:13;6.57;;;3.10;;
64225;SDS011;50545;56.064;26.178;2023-02-27T17:54:41;6.72;;;2.80;;
64225;SDS011;50545;56.064;26.178;2023-02-27T17:57:08;5.97;;;2.80;;
64225;SDS011;50545;56.064;26.178;2023-02-27T17:59:37;5.25;;;2.95;;
64225;SDS011;50545;56.064;26.178;2023-02-27T18:02:06;5.95;;;3.20;;
64225;SDS011;50545;56.064;26.178;2023-02-27T18:04:35;4.90;;;2.92;;
64225;SDS011;50545;56.064;26.178;2023-02-27T18:07:02;7.10;;;3.15;;